createdAt,value
2023-05-05T00:00:25.721Z,0.80
2023-05-05T00:02:54.369Z,0.80
2023-05-05T00:05:22.921Z,0.80
2023-05-05T00:07:51.694Z,0.60
2023-05-05T00:10:20.349Z,0.70
2023-05-05T00:12:48.934Z,0.70
2023-05-05T00:15:19.675Z,0.50
2023-05-05T00:17:48.277Z,0.73
2023-05-05T00:20:16.659Z,0.50
2023-05-05T00:22:45.772Z,0.82
2023-05-05T00:25:14.285Z,0.80
2023-05-05T00:27:42.783Z,0.70
2023-05-05T00:30:11.703Z,0.90
2023-05-05T00:32:40.375Z,1.00
2023-05-05T00:35:09.534Z,0.80
2023-05-05T00:37:38.381Z,0.88
2023-05-05T00:40:28.619Z,0.90
2023-05-05T00:42:57.293Z,0.90
2023-05-05T00:45:25.914Z,0.90
2023-05-05T00:47:58.263Z,1.00
2023-05-05T00:50:31.950Z,0.98
2023-05-05T00:53:05.338Z,0.70
2023-05-05T00:55:35.060Z,0.73
2023-05-05T00:58:05.149Z,0.88
2023-05-05T01:00:33.948Z,0.73
2023-05-05T01:03:02.491Z,0.88
2023-05-05T01:05:43.625Z,1.05
2023-05-05T01:08:18.150Z,1.02
2023-05-05T01:11:01.514Z,1.50
2023-05-05T01:13:49.103Z,0.90
2023-05-05T01:16:26.301Z,1.05
2023-05-05T01:19:31.007Z,1.05
2023-05-05T01:22:03.701Z,0.88
2023-05-05T01:25:13.122Z,1.75
2023-05-05T01:28:05.568Z,0.80
2023-05-05T01:30:51.820Z,0.95
2023-05-05T01:33:27.247Z,1.30
2023-05-05T01:35:59.253Z,0.77
2023-05-05T01:41:10.301Z,0.77
2023-05-05T01:46:09.766Z,1.15
2023-05-05T01:48:41.029Z,0.73
2023-05-05T01:51:12.581Z,0.70
2023-05-05T01:53:43.134Z,1.20
2023-05-05T01:56:13.451Z,1.00
2023-05-05T02:04:00.337Z,0.80
2023-05-05T02:06:36.909Z,0.80
2023-05-05T02:09:05.909Z,0.85
2023-05-05T02:11:34.416Z,1.27
2023-05-05T02:14:03.576Z,1.00
2023-05-05T02:16:35.402Z,0.85
2023-05-05T02:19:07.934Z,1.20
2023-05-05T02:21:36.393Z,0.90
2023-05-05T02:24:05.307Z,1.38
2023-05-05T02:26:38.139Z,0.70
2023-05-05T02:29:16.401Z,1.17
2023-05-05T02:31:50.326Z,1.00
2023-05-05T02:34:25.421Z,1.20
2023-05-05T02:36:58.487Z,1.33
2023-05-05T02:39:38.175Z,1.48
2023-05-05T02:42:09.153Z,1.30
2023-05-05T02:44:43.287Z,1.02
2023-05-05T02:47:12.151Z,1.17
2023-05-05T02:49:40.973Z,1.10
2023-05-05T02:52:09.445Z,1.10
2023-05-05T02:54:38.654Z,0.95
2023-05-05T02:57:07.103Z,1.30
2023-05-05T03:00:17.122Z,1.00
2023-05-05T03:02:56.888Z,0.98
2023-05-05T03:05:30.158Z,1.00
2023-05-05T03:08:21.966Z,1.20
2023-05-05T03:11:16.786Z,1.55
2023-05-05T03:13:50.093Z,0.93
2023-05-05T03:16:20.076Z,1.05
2023-05-05T03:18:51.318Z,1.10
2023-05-05T03:23:48.362Z,1.40
2023-05-05T03:26:19.892Z,1.38
2023-05-05T03:28:48.183Z,1.20
2023-05-05T03:31:35.172Z,1.42
2023-05-05T03:34:08.199Z,1.20
2023-05-05T03:36:37.123Z,1.10
2023-05-05T03:39:06.197Z,1.02
2023-05-05T03:41:37.502Z,1.08
2023-05-05T03:46:34.097Z,1.05
2023-05-05T03:49:02.871Z,1.27
2023-05-05T03:51:32.677Z,1.08
2023-05-05T03:54:01.041Z,1.20
2023-05-05T03:56:29.687Z,1.20
2023-05-05T03:58:58.364Z,1.23
2023-05-05T04:01:26.957Z,1.10
2023-05-05T04:03:55.545Z,1.08
2023-05-05T04:06:24.309Z,0.90
2023-05-05T04:08:52.819Z,0.90
2023-05-05T04:11:22.248Z,1.27
2023-05-05T04:14:37.617Z,1.00
2023-05-05T04:17:07.165Z,1.10
2023-05-05T04:19:37.906Z,1.30
2023-05-05T04:22:06.126Z,1.23
2023-05-05T04:24:34.581Z,1.08
2023-05-05T04:27:03.484Z,1.30
2023-05-05T04:29:32.211Z,1.13
2023-05-05T04:32:09.327Z,1.10
2023-05-05T04:34:37.834Z,1.30
2023-05-05T04:37:06.187Z,1.00
2023-05-05T04:39:40.340Z,0.93
2023-05-05T04:42:10.145Z,1.17
2023-05-05T04:44:38.631Z,0.95
2023-05-05T04:47:07.196Z,1.08
2023-05-05T04:49:35.743Z,1.13
2023-05-05T04:52:04.496Z,1.00
2023-05-05T04:54:33.124Z,1.15
2023-05-05T04:57:01.630Z,1.00
2023-05-05T04:59:30.273Z,1.00
2023-05-05T05:01:59.036Z,0.90
2023-05-05T05:04:28.260Z,1.05
2023-05-05T05:06:58.447Z,0.88
2023-05-05T05:09:38.669Z,0.85
2023-05-05T05:12:08.828Z,1.23
2023-05-05T05:14:41.261Z,0.70
2023-05-05T05:17:09.591Z,1.00
2023-05-05T05:19:37.891Z,0.75
2023-05-05T05:22:06.490Z,0.90
2023-05-05T05:24:40.922Z,1.00
2023-05-05T05:27:10.375Z,1.00
2023-05-05T05:29:38.757Z,1.20
2023-05-05T05:32:07.687Z,1.00
2023-05-05T05:34:36.493Z,1.05
2023-05-05T05:37:05.391Z,0.77
2023-05-05T05:39:34.050Z,1.08
2023-05-05T05:42:03.778Z,1.40
2023-05-05T05:44:32.195Z,1.00
2023-05-05T05:47:00.775Z,1.15
2023-05-05T05:49:29.550Z,1.02
2023-05-05T05:51:58.062Z,1.50
2023-05-05T05:54:26.830Z,1.30
2023-05-05T05:56:55.349Z,1.20
2023-05-05T05:59:23.829Z,1.17
2023-05-05T06:01:52.458Z,1.00
2023-05-05T06:04:21.111Z,1.05
2023-05-05T06:06:49.332Z,1.50
2023-05-05T06:09:39.419Z,1.20
2023-05-05T06:12:07.931Z,1.23
2023-05-05T06:14:36.581Z,1.40
2023-05-05T06:17:05.229Z,1.10
2023-05-05T06:19:34.188Z,1.10
2023-05-05T06:22:02.976Z,1.20
2023-05-05T06:24:33.013Z,1.10
2023-05-05T06:27:01.428Z,1.02
2023-05-05T06:29:30.073Z,1.10
2023-05-05T06:31:58.649Z,1.25
2023-05-05T06:34:27.892Z,1.08
2023-05-05T06:36:56.309Z,1.10
2023-05-05T06:39:41.281Z,1.30
2023-05-05T06:42:09.706Z,1.40
2023-05-05T06:44:38.336Z,1.17
2023-05-05T06:47:06.917Z,1.40
2023-05-05T06:49:35.461Z,1.63
2023-05-05T06:52:04.083Z,1.20
2023-05-05T06:54:32.606Z,1.38
2023-05-05T06:57:01.086Z,1.23
2023-05-05T06:59:29.697Z,1.27
2023-05-05T07:01:58.146Z,1.38
2023-05-05T07:04:27.801Z,1.17
2023-05-05T07:06:56.261Z,1.30
2023-05-05T07:09:42.991Z,1.13
2023-05-05T07:12:11.340Z,1.25
2023-05-05T07:14:39.980Z,1.55
2023-05-05T07:17:08.507Z,1.75
2023-05-05T07:19:37.140Z,1.52
2023-05-05T07:22:05.327Z,1.67
2023-05-05T07:24:54.184Z,1.50
2023-05-05T07:27:23.418Z,1.10
2023-05-05T07:29:52.122Z,1.33
2023-05-05T07:32:20.827Z,1.23
2023-05-05T07:34:49.147Z,1.10
2023-05-05T07:37:17.417Z,1.40
2023-05-05T07:39:48.235Z,1.33
2023-05-05T07:42:16.762Z,1.27
2023-05-05T07:44:45.046Z,1.20
2023-05-05T07:47:13.442Z,1.67
2023-05-05T07:49:42.030Z,1.65
2023-05-05T07:52:10.364Z,1.27
2023-05-05T07:54:39.110Z,1.35
2023-05-05T07:57:07.609Z,1.10
2023-05-05T07:59:36.250Z,1.40
2023-05-05T08:02:04.924Z,1.10
2023-05-05T08:04:33.515Z,1.38
2023-05-05T08:07:02.026Z,1.35
2023-05-05T08:09:30.819Z,1.40
2023-05-05T08:11:59.047Z,1.30
2023-05-05T08:14:27.481Z,1.35
2023-05-05T08:16:55.768Z,1.38
2023-05-05T08:19:29.245Z,1.45
2023-05-05T08:22:01.491Z,1.48
2023-05-05T08:24:30.492Z,1.15
2023-05-05T08:26:58.769Z,1.67
2023-05-05T08:29:27.755Z,1.45
2023-05-05T08:31:56.286Z,1.57
2023-05-05T08:34:25.370Z,1.23
2023-05-05T08:36:53.787Z,1.83
2023-05-05T08:39:22.264Z,1.23
2023-05-05T08:41:50.663Z,1.40
2023-05-05T08:44:19.037Z,2.17
2023-05-05T08:46:47.844Z,1.30
2023-05-05T08:49:18.964Z,1.20
2023-05-05T08:51:47.810Z,1.48
2023-05-05T08:54:20.432Z,1.50
2023-05-05T08:56:52.420Z,1.23
2023-05-05T08:59:26.146Z,1.20
2023-05-05T09:01:55.260Z,1.05
2023-05-05T09:04:49.835Z,1.30
2023-05-05T09:07:18.403Z,1.30
2023-05-05T09:09:47.414Z,1.20
2023-05-05T09:12:18.710Z,1.45
2023-05-05T09:17:29.177Z,1.40
2023-05-05T09:20:08.255Z,1.30
2023-05-05T09:22:40.216Z,1.60
2023-05-05T09:25:10.937Z,1.85
2023-05-05T09:27:46.697Z,1.50
2023-05-05T09:30:32.714Z,1.48
2023-05-05T09:33:03.218Z,1.70
2023-05-05T09:35:55.517Z,1.30
2023-05-05T09:38:26.079Z,1.45
2023-05-05T09:40:55.248Z,1.53
2023-05-05T09:43:25.100Z,1.35
2023-05-05T09:46:06.562Z,1.50
2023-05-05T09:48:35.177Z,1.25
2023-05-05T09:51:03.886Z,1.77
2023-05-05T09:53:42.637Z,1.80
2023-05-05T09:56:11.561Z,1.70
2023-05-05T09:58:40.207Z,1.65
2023-05-05T10:01:24.393Z,1.48
2023-05-05T10:03:56.096Z,2.03
2023-05-05T10:06:45.705Z,1.40
2023-05-05T10:09:14.492Z,1.27
2023-05-05T10:11:48.234Z,1.33
2023-05-05T10:14:18.773Z,1.55
2023-05-05T10:16:52.378Z,1.20
2023-05-05T10:19:22.816Z,1.10
2023-05-05T10:22:00.955Z,1.70
2023-05-05T10:24:58.304Z,1.25
2023-05-05T10:27:29.863Z,1.63
2023-05-05T10:33:07.816Z,1.33
2023-05-05T10:35:45.335Z,0.95
2023-05-05T10:38:15.419Z,1.30
2023-05-05T10:40:47.717Z,1.40
2023-05-05T10:43:16.657Z,1.55
2023-05-05T10:45:45.958Z,1.40
2023-05-05T10:48:24.073Z,1.23
2023-05-05T10:51:00.155Z,1.30
2023-05-05T10:54:16.530Z,1.55
2023-05-05T10:56:45.065Z,1.60
2023-05-05T10:59:38.238Z,1.70
2023-05-05T11:02:33.042Z,1.20
2023-05-05T11:05:18.943Z,1.58
2023-05-05T11:07:50.144Z,1.27
2023-05-05T11:10:24.466Z,1.30
2023-05-05T11:13:21.974Z,1.20
2023-05-05T11:16:42.846Z,1.23
2023-05-05T11:19:45.595Z,1.75
2023-05-05T11:22:14.014Z,1.30
2023-05-05T11:24:43.448Z,1.25
2023-05-05T11:27:15.406Z,1.50
2023-05-05T11:30:05.002Z,1.30
2023-05-05T11:32:34.815Z,1.40
2023-05-05T11:35:04.836Z,1.80
2023-05-05T11:37:33.526Z,1.42
2023-05-05T11:40:31.317Z,1.60
2023-05-05T11:43:09.349Z,1.30
2023-05-05T11:45:37.902Z,1.60
2023-05-05T11:48:26.890Z,1.35
2023-05-05T11:50:55.545Z,2.03
2023-05-05T11:53:24.797Z,1.88
2023-05-05T11:56:10.049Z,1.20
2023-05-05T11:58:38.948Z,1.60
2023-05-05T12:01:10.703Z,1.52
2023-05-05T12:03:40.408Z,1.60
2023-05-05T12:06:09.992Z,1.58
2023-05-05T12:08:42.896Z,1.40
2023-05-05T12:11:12.709Z,1.67
2023-05-05T12:13:41.110Z,1.70
2023-05-05T12:16:19.118Z,3.10
2023-05-05T12:18:47.503Z,1.92
2023-05-05T12:21:19.759Z,1.50
2023-05-05T12:23:48.762Z,1.58
2023-05-05T12:26:28.717Z,1.27
2023-05-05T12:28:57.912Z,1.52
2023-05-05T12:31:39.884Z,1.60
2023-05-05T12:34:10.938Z,1.10
2023-05-05T12:36:40.097Z,1.65
2023-05-05T12:39:09.035Z,2.05
2023-05-05T12:41:37.351Z,1.42
2023-05-05T12:44:06.076Z,1.70
2023-05-05T12:46:46.909Z,1.40
2023-05-05T12:49:16.607Z,1.30
2023-05-05T12:51:58.041Z,1.35
2023-05-05T12:54:30.385Z,1.70
2023-05-05T12:56:59.394Z,1.90
2023-05-05T12:59:28.345Z,1.75
2023-05-05T13:01:58.757Z,1.20
2023-05-05T13:04:30.820Z,1.38
2023-05-05T13:07:15.974Z,1.45
2023-05-05T13:09:44.295Z,1.25
2023-05-05T13:12:13.143Z,1.33
2023-05-05T13:14:42.762Z,1.38
2023-05-05T13:17:12.372Z,1.52
2023-05-05T13:19:46.982Z,1.65
2023-05-05T13:22:15.277Z,1.98
2023-05-05T13:24:51.781Z,1.73
2023-05-05T13:27:21.452Z,1.73
2023-05-05T13:29:49.816Z,1.50
2023-05-05T13:32:18.099Z,1.58
2023-05-05T13:34:46.626Z,1.83
2023-05-05T13:37:14.923Z,1.60
2023-05-05T13:39:43.246Z,1.55
2023-05-05T13:42:13.394Z,1.40
2023-05-05T13:44:41.640Z,1.80
2023-05-05T13:47:09.967Z,1.70
2023-05-05T13:49:38.267Z,1.52
2023-05-05T13:52:06.877Z,1.83
2023-05-05T13:54:35.115Z,1.50
2023-05-05T13:57:04.305Z,1.50
2023-05-05T13:59:32.725Z,1.73
2023-05-05T14:02:02.069Z,1.70
2023-05-05T14:04:30.473Z,1.40
2023-05-05T14:06:59.415Z,1.45
2023-05-05T14:09:30.439Z,2.08
2023-05-05T14:11:59.978Z,1.80
2023-05-05T14:14:28.186Z,1.58
2023-05-05T14:16:56.853Z,1.50
2023-05-05T14:19:25.184Z,1.73
2023-05-05T14:21:53.998Z,1.77
2023-05-05T14:24:22.302Z,1.88
2023-05-05T14:26:51.237Z,1.90
2023-05-05T14:29:19.499Z,2.25
2023-05-05T14:31:47.861Z,1.60
2023-05-05T14:34:16.198Z,1.70
2023-05-05T14:36:44.638Z,1.58
2023-05-05T14:39:13.522Z,1.40
2023-05-05T14:41:47.428Z,1.95
2023-05-05T14:44:19.058Z,1.60
2023-05-05T14:46:48.575Z,1.67
2023-05-05T14:51:50.089Z,1.40
2023-05-05T14:54:27.328Z,1.52
2023-05-05T14:56:57.203Z,1.20
2023-05-05T14:59:25.632Z,1.25
2023-05-05T15:01:53.937Z,1.13
2023-05-05T15:04:22.183Z,1.42
2023-05-05T15:06:51.121Z,0.95
2023-05-05T15:09:21.012Z,1.08
2023-05-05T15:11:49.358Z,1.00
2023-05-05T15:14:17.623Z,1.08
2023-05-05T15:16:47.568Z,1.20
2023-05-05T15:19:15.849Z,0.93
2023-05-05T15:21:44.669Z,0.90
2023-05-05T15:24:13.176Z,0.98
2023-05-05T15:26:41.530Z,0.98
2023-05-05T15:29:09.779Z,1.00
2023-05-05T15:31:38.084Z,1.00
2023-05-05T15:34:07.199Z,1.00
2023-05-05T15:36:38.067Z,0.90
2023-05-05T15:39:06.555Z,0.80
2023-05-05T15:41:38.952Z,1.02
2023-05-05T15:44:18.608Z,1.25
2023-05-05T15:46:50.664Z,1.00
2023-05-05T15:49:19.233Z,0.93
2023-05-05T15:51:49.073Z,0.93
2023-05-05T15:54:20.023Z,0.90
2023-05-05T15:56:48.692Z,1.20
2023-05-05T15:59:20.072Z,0.88
2023-05-05T16:04:26.863Z,0.90
2023-05-05T16:06:56.364Z,1.10
2023-05-05T16:12:33.624Z,0.73
2023-05-05T16:15:20.922Z,0.70
2023-05-05T16:21:26.686Z,1.05
2023-05-05T16:26:23.748Z,0.90
2023-05-05T16:28:53.175Z,0.80
2023-05-05T16:31:21.708Z,0.85
2023-05-05T16:33:50.016Z,0.90
2023-05-05T16:36:18.264Z,0.50
2023-05-05T16:38:50.705Z,0.73
2023-05-05T16:41:19.268Z,0.65
2023-05-05T16:43:51.305Z,0.80
2023-05-05T16:46:30.166Z,1.13
2023-05-05T16:48:58.691Z,1.00
2023-05-05T16:51:42.259Z,0.60
2023-05-05T16:54:18.125Z,0.55
2023-05-05T16:56:53.205Z,0.90
2023-05-05T16:59:21.644Z,0.70
2023-05-05T17:01:50.467Z,0.70
2023-05-05T17:04:18.843Z,0.50
2023-05-05T17:06:47.263Z,0.90
2023-05-05T17:09:16.750Z,0.60
2023-05-05T17:11:45.027Z,0.70
2023-05-05T17:14:13.471Z,0.47
2023-05-05T17:16:42.314Z,0.77
2023-05-05T17:19:13.999Z,0.80
2023-05-05T17:21:43.998Z,0.70
2023-05-05T17:24:18.840Z,0.52
2023-05-05T17:26:47.303Z,0.60
2023-05-05T17:29:20.493Z,0.90
2023-05-05T17:31:49.193Z,0.82
2023-05-05T17:34:18.138Z,0.60
2023-05-05T17:36:46.791Z,0.60
2023-05-05T17:39:15.221Z,0.70
2023-05-05T17:41:44.135Z,0.60
2023-05-05T17:44:12.367Z,1.30
2023-05-05T17:46:41.340Z,0.63
2023-05-05T17:49:09.746Z,0.47
2023-05-05T17:51:38.397Z,0.50
2023-05-05T17:54:07.284Z,0.60
2023-05-05T17:56:38.953Z,1.05
2023-05-05T17:59:08.101Z,0.60
2023-05-05T18:01:36.446Z,1.00
2023-05-05T18:04:04.784Z,0.75
2023-05-05T18:06:33.190Z,0.60
2023-05-05T18:09:01.654Z,0.60
2023-05-05T18:11:31.906Z,0.80
2023-05-05T18:14:00.502Z,0.75
2023-05-05T18:16:28.842Z,0.52
2023-05-05T18:18:57.119Z,1.10
2023-05-05T18:21:25.451Z,0.90
2023-05-05T18:24:01.672Z,0.65
2023-05-05T18:26:36.557Z,0.70
2023-05-05T18:29:07.974Z,0.70
2023-05-05T18:31:36.834Z,0.88
2023-05-05T18:34:05.380Z,0.68
2023-05-05T18:36:34.207Z,0.73
2023-05-05T18:39:02.686Z,0.32
2023-05-05T18:41:31.610Z,0.65
2023-05-05T18:44:00.057Z,0.50
2023-05-05T18:46:28.673Z,0.60
2023-05-05T18:48:57.225Z,0.57
2023-05-05T18:51:25.549Z,0.57
2023-05-05T18:53:54.372Z,0.52
2023-05-05T18:56:22.673Z,0.63
2023-05-05T18:58:50.977Z,0.60
2023-05-05T19:01:19.850Z,0.65
2023-05-05T19:03:49.177Z,1.20
2023-05-05T19:06:23.258Z,0.95
2023-05-05T19:08:51.575Z,0.55
2023-05-05T19:11:20.349Z,0.60
2023-05-05T19:13:49.373Z,1.00
2023-05-05T19:16:20.253Z,0.70
2023-05-05T19:18:49.233Z,0.47
2023-05-05T19:21:28.110Z,1.52
2023-05-05T19:23:59.833Z,0.85
2023-05-05T19:26:28.400Z,1.05
2023-05-05T19:28:59.764Z,0.85
2023-05-05T19:34:02.697Z,0.98
2023-05-05T19:36:35.395Z,0.93
2023-05-05T19:39:05.241Z,1.48
2023-05-05T19:41:35.991Z,0.70
2023-05-05T19:46:56.736Z,0.57
2023-05-05T19:49:24.969Z,0.80
2023-05-05T19:51:55.224Z,0.70
2023-05-05T19:54:26.498Z,0.60
2023-05-05T19:59:25.937Z,0.75
2023-05-05T20:01:54.246Z,0.80
2023-05-05T20:04:25.797Z,0.60
2023-05-05T20:06:54.788Z,0.65
2023-05-05T20:09:23.032Z,0.88
2023-05-05T20:11:54.047Z,0.65
2023-05-05T20:14:22.584Z,0.63
2023-05-05T20:16:50.840Z,0.70
2023-05-05T20:19:20.577Z,0.70
2023-05-05T20:21:48.913Z,1.02
2023-05-05T20:24:17.865Z,0.90
2023-05-05T20:26:49.021Z,0.70
2023-05-05T20:29:17.391Z,0.52
2023-05-05T20:31:45.762Z,0.98
2023-05-05T20:34:14.192Z,1.10
2023-05-05T20:36:42.786Z,0.73
2023-05-05T20:39:17.190Z,0.70
2023-05-05T20:41:47.172Z,0.70
2023-05-05T20:44:15.504Z,0.80
2023-05-05T20:46:43.874Z,0.85
2023-05-05T20:49:12.500Z,0.70
2023-05-05T20:51:40.693Z,0.70
2023-05-05T20:54:10.900Z,0.73
2023-05-05T20:56:39.826Z,0.70
2023-05-05T20:59:08.040Z,0.95
2023-05-05T21:01:36.422Z,0.80
2023-05-05T21:04:04.788Z,1.00
2023-05-05T21:06:33.523Z,0.77
2023-05-05T21:09:08.726Z,0.90
2023-05-05T21:11:36.962Z,0.70
2023-05-05T21:14:07.853Z,0.82
2023-05-05T21:16:36.126Z,0.55
2023-05-05T21:19:05.016Z,0.80
2023-05-05T21:21:33.300Z,0.57
2023-05-05T21:24:01.614Z,0.80
2023-05-05T21:26:29.944Z,0.82
2023-05-05T21:28:58.274Z,0.75
2023-05-05T21:31:26.682Z,0.50
2023-05-05T21:33:57.874Z,0.60
2023-05-05T21:36:26.242Z,1.35
2023-05-05T21:39:00.278Z,1.10
2023-05-05T21:41:28.693Z,1.10
2023-05-05T21:43:56.970Z,0.95
2023-05-05T21:46:25.723Z,0.68
2023-05-05T21:48:54.159Z,1.08
2023-05-05T21:51:25.036Z,0.80
2023-05-05T21:53:59.735Z,0.70
2023-05-05T21:56:28.672Z,1.10
2023-05-05T21:59:00.197Z,0.90
2023-05-05T22:01:28.663Z,0.63
2023-05-05T22:03:57.464Z,1.10
2023-05-05T22:06:25.924Z,0.88
2023-05-05T22:08:57.623Z,0.80
2023-05-05T22:11:26.185Z,0.70
2023-05-05T22:13:55.133Z,0.90
2023-05-05T22:16:23.596Z,1.17
2023-05-05T22:18:52.273Z,0.90
2023-05-05T22:21:21.738Z,0.82
2023-05-05T22:23:53.002Z,0.77
2023-05-05T22:26:21.840Z,1.02
2023-05-05T22:28:50.221Z,1.20
2023-05-05T22:31:28.764Z,0.80
2023-05-05T22:33:57.576Z,0.95
2023-05-05T22:36:26.790Z,0.47
2023-05-05T22:38:55.145Z,0.90
2023-05-05T22:41:23.704Z,0.70
2023-05-05T22:43:52.245Z,0.63
2023-05-05T22:46:20.864Z,0.70
2023-05-05T22:48:52.103Z,0.80
2023-05-05T22:51:20.492Z,1.02
2023-05-05T22:53:59.173Z,1.00
2023-05-05T22:56:27.615Z,0.88
2023-05-05T22:58:57.291Z,0.82
2023-05-05T23:01:26.576Z,0.60
2023-05-05T23:03:55.066Z,0.70
2023-05-05T23:06:23.496Z,0.80
2023-05-05T23:09:36.309Z,0.50
2023-05-05T23:12:05.223Z,1.00
2023-05-05T23:14:37.213Z,0.80
2023-05-05T23:17:05.737Z,0.70
2023-05-05T23:19:56.939Z,0.50
2023-05-05T23:22:45.825Z,0.50
2023-05-05T23:25:20.006Z,0.60
2023-05-05T23:27:48.986Z,0.77
2023-05-05T23:30:28.285Z,0.40
2023-05-05T23:35:51.245Z,0.65
2023-05-05T23:38:19.518Z,0.75
2023-05-05T23:40:57.612Z,0.57
2023-05-05T23:43:32.426Z,0.47
2023-05-05T23:46:01.274Z,0.60
2023-05-05T23:48:31.718Z,0.47
2023-05-05T23:51:03.002Z,0.37
2023-05-05T23:56:08.411Z,0.60
2023-05-05T23:59:00.298Z,0.52
